Port Royal, South Carolina
Current Conditions -  °F | °C
As of 7:35 PM on Tuesday 25 Nov 2014 (Local Time) from KARW Reporting Station
Light Rain Light Rain  
Wind Chill: 61°   Ceiling: 5500
Heat Index: 61°   Visibility: 7mi
Dew Point: 61°   Wind: 8mph
Humidity: 100%   Direction: 40°NE
Pressure: 30.01"   Gusts: NA
Location:  32.38°N, 80.69°W
Report Text: KARW 260035Z AUTO 04007KT 7SM -RA SCT027 SCT039 OVC055 16/16 A3001 RMK AO2
Loading
Personal Weather Stations






























Interactive Weather Map New forecast layout! Learn more

10-Day Weather Forecast

Advertisements
Track Severe Weather on mobile